Terminal Aerodrome Forecast
Issued by NWS Bismarck, ND

Home | Current Version | Previous Version | Text Only | Print | Product List | Glossary On
Versions: 1 2 3 4 5 6 7 8 9 10 11 12 13 14 15 16 17 18
867
FTUS43 KBIS 031756 AAA
TAFISN
TAF AMD
KISN 031756Z 0318/0418 21007KT P6SM FEW070
     FM031900 22008KT P6SM VCSH BKN025
      TEMPO 0320/0323 4SM -SN
     FM040100 27008KT P6SM OVC015
     FM040700 26007KT P6SM BKN035
     FM040900 24006KT P6SM SCT090=

USA.gov is the U.S. government's official web portal to all federal, state and local government web resources and services.